^^
Station Historical Data
Daily Summary for February 4, 2018 Units:  English    Metric   Both
« Previous Day
Next Day »
Daily Weekly Monthly Yearly Custom
  High: Low: Average:
Temperature: TemperatureF °F 72.3 °F 78.9 °F
Dew Point: DewpointF °F 49.5 °F 51.5 °F
Humidity: Humidity% 33% 38%
Wind Speed: WindSpeedMPHmph -999.9mph -3.1mph
Wind Gust: WindSpeedGustMPHmph - -
Wind- - NE
Pressure: PressureIn in 29.51 in -
Precipitation: 0.03 in    
Historical Graphs
 
 
Tabular Data for February 4, 2018
Time Temperature Dew Point Pressure Wind Wind Speed Wind Gust Humidity Rainfall Rate (Hourly) solar Conditions
TemperatureF °F DewpointF °F PressureIn in Calm     Humidity% HourlyPrecipIn in SoftwareType W/m2 Conditions
08:46 72.7 °F 50.2 °F 29.63 in NNE 2.0 mph 10.0 mph 45% 0.00 in meteobridge W/m2
08:52 72.9 °F 50.4 °F 29.63 in North 0.9 mph 6.0 mph 45% 0.00 in meteobridge W/m2
08:58 73.0 °F 51.1 °F 29.64 in NNE 6.9 mph 7.0 mph 46% 0.00 in meteobridge W/m2
09:04 72.9 °F 50.9 °F 29.64 in North 8.9 mph 11.0 mph 46% 0.00 in meteobridge W/m2
09:10 73.0 °F 51.1 °F 29.64 in NNE 6.0 mph 13.0 mph 46% 0.00 in meteobridge W/m2
09:16 73.6 °F 51.4 °F 29.64 in North 11.0 mph 14.0 mph 46% 0.00 in meteobridge W/m2
09:23 74.3 °F 50.9 °F 29.64 in NNE 11.0 mph 11.0 mph 44% 0.00 in meteobridge W/m2
09:29 74.3 °F 50.9 °F 29.65 in North 8.9 mph 11.0 mph 44% 0.00 in meteobridge W/m2
09:35 74.3 °F 50.9 °F 29.65 in NNW 15.0 mph 15.0 mph 44% 0.00 in meteobridge W/m2
09:41 73.9 °F 51.3 °F 29.65 in NNE 8.9 mph 16.0 mph 45% 0.00 in meteobridge W/m2
09:48 74.7 °F 51.3 °F 29.65 in NNE 11.0 mph 18.0 mph 44% 0.00 in meteobridge W/m2
09:54 75.2 °F 51.1 °F 29.65 in NNE 14.1 mph 19.0 mph 43% 0.00 in meteobridge W/m2
10:00 75.4 °F 50.7 °F 29.65 in North 11.0 mph 12.0 mph 42% 0.00 in meteobridge W/m2
10:06 75.6 °F 50.2 °F 29.65 in North 6.0 mph 17.0 mph 41% 0.00 in meteobridge W/m2
10:12 75.6 °F 50.9 °F 29.65 in North 6.9 mph 13.0 mph 42% 0.00 in meteobridge W/m2
10:24 76.1 °F 50.7 °F 29.65 in NNE 6.9 mph 17.0 mph 41% 0.00 in meteobridge W/m2
10:32 77.2 °F 51.1 °F 29.65 in NNE 6.0 mph 16.0 mph 40% 0.00 in meteobridge W/m2
10:47 77.5 °F 51.3 °F 29.65 in NNE 19.0 mph 19.0 mph 40% 0.00 in meteobridge W/m2
10:54 78.6 °F 51.6 °F 29.64 in North 12.1 mph 18.0 mph 39% 0.00 in meteobridge W/m2
11:00 78.4 °F 51.4 °F 29.65 in NNW 12.1 mph 16.0 mph 39% 0.00 in meteobridge W/m2
11:06 78.6 °F 52.3 °F 29.64 in North 14.1 mph 22.0 mph 40% 0.00 in meteobridge W/m2
11:12 78.8 °F 51.8 °F 29.64 in NNW 6.0 mph 12.0 mph 39% 0.00 in meteobridge W/m2
11:18 79.7 °F 52.5 °F 29.64 in North 15.0 mph 19.0 mph 39% 0.00 in meteobridge W/m2
11:25 80.4 °F 53.2 °F 29.64 in North 13.0 mph 19.0 mph 39% 0.00 in meteobridge W/m2
11:31 80.4 °F 52.5 °F 29.64 in NNE 11.0 mph 18.0 mph 38% 0.00 in meteobridge W/m2
11:37 81.0 °F 52.9 °F 29.64 in North 6.9 mph 15.0 mph 38% 0.00 in meteobridge W/m2
11:43 80.1 °F 52.9 °F 29.64 in NNW 14.1 mph 21.0 mph 39% 0.00 in meteobridge W/m2
11:49 80.1 °F 52.9 °F 29.63 in NNE 8.9 mph 13.0 mph 39% 0.00 in meteobridge W/m2
11:55 81.1 °F 52.3 °F 29.64 in NNE 6.9 mph 17.0 mph 37% 0.00 in meteobridge W/m2
12:01 81.5 °F 52.7 °F 29.63 in North 11.0 mph 15.0 mph 37% 0.00 in meteobridge W/m2
12:08 80.6 °F 52.0 °F 29.63 in NNE 2.9 mph 18.0 mph 37% 0.00 in meteobridge W/m2
12:14 80.4 °F 51.1 °F 29.63 in North 17.9 mph 19.0 mph 36% 0.00 in meteobridge W/m2
12:20 81.3 °F 51.1 °F 29.63 in North 12.1 mph 17.0 mph 35% 0.00 in meteobridge W/m2
12:26 81.3 °F 49.5 °F 29.62 in NNE 10.1 mph 19.0 mph 33% 0.00 in meteobridge W/m2
12:32 81.3 °F 51.8 °F 29.62 in NNE 6.9 mph 11.0 mph 36% 0.00 in meteobridge W/m2
12:38 81.0 °F 51.4 °F 29.62 in NNE 12.1 mph 16.0 mph 36% 0.00 in meteobridge W/m2
12:44 81.0 °F 51.4 °F 29.62 in NNE 8.1 mph 13.0 mph 36% 0.00 in meteobridge W/m2
12:50 80.4 °F 52.5 °F 29.62 in NNW 8.9 mph 18.0 mph 38% 0.00 in meteobridge W/m2
12:57 81.0 °F 52.2 °F 29.62 in NNE 11.0 mph 19.0 mph 37% 0.00 in meteobridge W/m2
13:03 81.0 °F 52.2 °F 29.62 in North 6.9 mph 13.0 mph 37% 0.00 in meteobridge W/m2
13:09 81.1 °F 52.3 °F 29.61 in NNE 10.1 mph 17.0 mph 37% 0.00 in meteobridge W/m2
13:15 80.4 °F 52.5 °F 29.61 in NNW 6.0 mph 15.0 mph 38% 0.00 in meteobridge W/m2
13:21 80.2 °F 51.6 °F 29.61 in North 10.1 mph 16.0 mph 37% 0.00 in meteobridge W/m2
13:27 81.3 °F 51.8 °F 29.61 in NNE 12.1 mph 13.0 mph 36% 0.00 in meteobridge W/m2
13:33 82.2 °F 52.5 °F 29.61 in NNE 14.1 mph 15.0 mph 36% 0.00 in meteobridge W/m2
13:39 81.7 °F 52.2 °F 29.61 in North 2.9 mph 13.0 mph 36% 0.00 in meteobridge W/m2
13:45 82.2 °F 51.8 °F 29.60 in North 4.0 mph 13.0 mph 35% 0.00 in meteobridge W/m2
13:52 82.6 °F 52.2 °F 29.60 in North 10.1 mph 15.0 mph 35% 0.00 in meteobridge W/m2
13:58 82.0 °F 52.5 °F 29.61 in North 11.0 mph 11.0 mph 36% 0.00 in meteobridge W/m2
14:04 81.3 °F 51.8 °F 29.60 in North 8.9 mph 16.0 mph 36% 0.00 in meteobridge W/m2
14:10 81.1 °F 51.6 °F 29.60 in North 10.1 mph 13.0 mph 36% 0.00 in meteobridge W/m2
14:16 80.8 °F 52.2 °F 29.60 in North 4.9 mph 12.0 mph 37% 0.00 in meteobridge W/m2
14:22 81.0 °F 51.4 °F 29.60 in North 6.0 mph 13.0 mph 36% 0.00 in meteobridge W/m2
14:28 81.3 °F 51.1 °F 29.59 in NNW 11.0 mph 17.0 mph 35% 0.00 in meteobridge W/m2
14:34 81.9 °F 51.4 °F 29.59 in North 11.0 mph 18.0 mph 35% 0.00 in meteobridge W/m2
14:40 82.2 °F 51.8 °F 29.59 in NNE 2.9 mph 5.0 mph 35% 0.00 in meteobridge W/m2
14:47 82.0 °F 52.5 °F 29.59 in NNW 4.9 mph 14.0 mph 36% 0.00 in meteobridge W/m2
14:53 81.3 °F 51.8 °F 29.59 in North 4.9 mph 14.0 mph 36% 0.00 in meteobridge W/m2
14:59 82.8 °F 52.3 °F 29.59 in North 4.9 mph 13.0 mph 35% 0.00 in meteobridge W/m2
15:05 83.7 °F 52.3 °F 29.58 in NNE 4.9 mph 12.0 mph 34% 0.00 in meteobridge W/m2
15:11 83.7 °F 52.3 °F 29.58 in North 4.0 mph 14.0 mph 34% 0.00 in meteobridge W/m2
15:17 82.6 °F 51.4 °F 29.58 in NNE 8.9 mph 13.0 mph 34% 0.00 in meteobridge W/m2
15:24 82.2 °F 51.8 °F 29.57 in ENE 2.9 mph 12.0 mph 35% 0.00 in meteobridge W/m2
15:30 83.8 °F 52.5 °F 29.57 in North 0.9 mph 2.0 mph 34% 0.00 in meteobridge W/m2
15:36 84.4 °F 52.2 °F 29.56 in NNE 17.0 mph 17.0 mph 33% 0.00 in meteobridge W/m2
15:42 83.7 °F 52.3 °F 29.56 in North 6.0 mph 14.0 mph 34% 0.00 in meteobridge W/m2
15:48 82.9 °F 52.5 °F 29.56 in North 8.1 mph 9.0 mph 35% 0.00 in meteobridge W/m2
15:54 82.4 °F 52.0 °F 29.55 in NE 4.9 mph 8.0 mph 35% 0.00 in meteobridge W/m2
16:00 82.6 °F 51.4 °F 29.54 in NNE 2.9 mph 13.0 mph 34% 0.00 in meteobridge W/m2
16:06 83.3 °F 52.9 °F 29.54 in ENE 0.9 mph 21.0 mph 35% 0.00 in meteobridge W/m2
16:12 84.0 °F 52.7 °F 29.54 in North 4.0 mph 8.0 mph 34% 0.00 in meteobridge W/m2
16:19 84.6 °F 53.1 °F 29.53 in NNW 4.9 mph 13.0 mph 34% 0.00 in meteobridge W/m2
16:25 84.4 °F 52.2 °F 29.53 in North 10.1 mph 18.0 mph 33% 0.00 in meteobridge W/m2
16:31 83.3 °F 52.0 °F 29.53 in NNE 6.0 mph 7.0 mph 34% 0.00 in meteobridge W/m2
16:37 82.9 °F 51.6 °F 29.53 in NNE 4.9 mph 5.0 mph 34% 0.00 in meteobridge W/m2
16:43 82.6 °F 52.2 °F 29.53 in North 0.9 mph 10.0 mph 35% 0.00 in meteobridge W/m2
16:49 82.6 °F 52.2 °F 29.52 in NNW 6.9 mph 11.0 mph 35% 0.00 in meteobridge W/m2
16:55 82.2 °F 51.8 °F 29.52 in NNE 4.0 mph 12.0 mph 35% 0.00 in meteobridge W/m2
17:01 82.2 °F 51.8 °F 29.52 in NNW 4.0 mph 13.0 mph 35% 0.00 in meteobridge W/m2
17:07 82.2 °F 51.8 °F 29.51 in NE 6.9 mph 7.0 mph 35% 0.00 in meteobridge W/m2
17:13 82.2 °F 51.8 °F 29.51 in North 4.9 mph 10.0 mph 35% 0.00 in meteobridge W/m2
17:20 82.2 °F 51.8 °F 29.52 in NNE 6.9 mph 7.0 mph 35% 0.00 in meteobridge W/m2
17:26 81.7 °F 51.4 °F 29.51 in North 11.0 mph 15.0 mph 35% 0.00 in meteobridge W/m2
17:32 81.5 °F 51.3 °F 29.51 in North 6.0 mph 12.0 mph 35% 0.00 in meteobridge W/m2
17:38 80.2 °F 54.3 °F 29.51 in NNE 10.1 mph 14.0 mph 41% 0.00 in meteobridge W/m2
17:44 77.2 °F 55.9 °F 29.52 in NNE 2.9 mph 13.0 mph 48% 0.00 in meteobridge W/m2
17:50 74.5 °F 57.7 °F 29.52 in NNE 4.9 mph 11.0 mph 56% 0.01 in meteobridge W/m2
17:56 72.3 °F 57.2 °F 29.52 in North 11.0 mph 11.0 mph 59% 0.03 in meteobridge W/m2
18:03 72.3 °F 57.2 °F 29.53 in North 11.0 mph -999.0 mph 59% 0.03 in meteobridge W/m2
18:09 72.3 °F 57.2 °F 29.52 in North -999.9 mph -999.0 mph 59% 0.03 in meteobridge W/m2
Regenstein, Windhoek, Namibia
Compliments of Weather Underground - 2.5 mb